sensor_id;sensor_type;location;lat;lon;timestamp;pressure;altitude;pressure_sealevel;temperature;humidity
56272;BME280;42177;48.914;18.160;2023-07-29T00:03:00;981;;;19.4;100
56272;BME280;42177;48.914;18.160;2023-07-29T00:08:01;981.1;;;19;100
56272;BME280;42177;48.914;18.160;2023-07-29T00:13:01;981.1;;;19;100
56272;BME280;42177;48.914;18.160;2023-07-29T00:18:00;981.1;;;19.4;100
56272;BME280;42177;48.914;18.160;2023-07-29T00:23:00;981.1;;;19.4;100
56272;BME280;42177;48.914;18.160;2023-07-29T00:28:00;981.1;;;19.4;100
56272;BME280;42177;48.914;18.160;2023-07-29T00:33:00;981.1;;;19.4;100
56272;BME280;42177;48.914;18.160;2023-07-29T00:38:00;981;;;19.2;100
56272;BME280;42177;48.914;18.160;2023-07-29T00:43:00;981;;;19.2;100
56272;BME280;42177;48.914;18.160;2023-07-29T00:48:01;981;;;19.2;100
56272;BME280;42177;48.914;18.160;2023-07-29T00:53:00;981;;;19.2;100
56272;BME280;42177;48.914;18.160;2023-07-29T00:58:00;981.1;;;19.1;100
56272;BME280;42177;48.914;18.160;2023-07-29T01:03:01;981.1;;;19.1;100
56272;BME280;42177;48.914;18.160;2023-07-29T01:08:03;981;;;19;100
56272;BME280;42177;48.914;18.160;2023-07-29T01:13:01;981;;;19;100
56272;BME280;42177;48.914;18.160;2023-07-29T01:18:02;981;;;19.3;100
56272;BME280;42177;48.914;18.160;2023-07-29T01:23:00;981;;;19.3;100
56272;BME280;42177;48.914;18.160;2023-07-29T01:28:01;981.1;;;19.1;100
56272;BME280;42177;48.914;18.160;2023-07-29T01:33:02;981.1;;;19.1;100
56272;BME280;42177;48.914;18.160;2023-07-29T01:38:04;981;;;19.1;100
56272;BME280;42177;48.914;18.160;2023-07-29T01:43:00;981;;;19.1;100
56272;BME280;42177;48.914;18.160;2023-07-29T01:48:01;980.9;;;18.9;100
56272;BME280;42177;48.914;18.160;2023-07-29T01:53:01;980.9;;;18.9;100
56272;BME280;42177;48.914;18.160;2023-07-29T01:58:00;980.9;;;18.9;100
56272;BME280;42177;48.914;18.160;2023-07-29T02:03:01;980.9;;;18.9;100
56272;BME280;42177;48.914;18.160;2023-07-29T02:08:01;981;;;19;100
56272;BME280;42177;48.914;18.160;2023-07-29T02:13:01;981;;;19;100
56272;BME280;42177;48.914;18.160;2023-07-29T02:18:00;981;;;18.8;100
56272;BME280;42177;48.914;18.160;2023-07-29T02:23:00;981;;;18.8;100
56272;BME280;42177;48.914;18.160;2023-07-29T02:28:01;981;;;18.8;100
56272;BME280;42177;48.914;18.160;2023-07-29T02:33:01;981;;;18.8;100
56272;BME280;42177;48.914;18.160;2023-07-29T02:38:00;981;;;18.6;100
56272;BME280;42177;48.914;18.160;2023-07-29T02:43:00;981;;;18.6;100
56272;BME280;42177;48.914;18.160;2023-07-29T02:48:01;981;;;18.6;100
56272;BME280;42177;48.914;18.160;2023-07-29T02:53:01;981;;;18.6;100
56272;BME280;42177;48.914;18.160;2023-07-29T02:58:01;981.1;;;18.4;100
56272;BME280;42177;48.914;18.160;2023-07-29T03:03:01;981.1;;;18.4;100
56272;BME280;42177;48.914;18.160;2023-07-29T03:08:00;981;;;18.5;100
56272;BME280;42177;48.914;18.160;2023-07-29T03:13:00;981;;;18.5;100
56272;BME280;42177;48.914;18.160;2023-07-29T03:18:01;981.1;;;18.5;100
56272;BME280;42177;48.914;18.160;2023-07-29T03:23:01;981.1;;;18.5;100
56272;BME280;42177;48.914;18.160;2023-07-29T03:28:01;981.1;;;18.3;100
56272;BME280;42177;48.914;18.160;2023-07-29T03:33:01;981.1;;;18.3;100
56272;BME280;42177;48.914;18.160;2023-07-29T03:38:01;981;;;18.3;100
56272;BME280;42177;48.914;18.160;2023-07-29T03:43:01;981;;;18.3;100
56272;BME280;42177;48.914;18.160;2023-07-29T03:48:01;981.2;;;18.2;100
56272;BME280;42177;48.914;18.160;2023-07-29T03:53:01;981.2;;;18.2;100
56272;BME280;42177;48.914;18.160;2023-07-29T03:58:01;981.2;;;18.4;100
56272;BME280;42177;48.914;18.160;2023-07-29T04:03:01;981.2;;;18.4;100
56272;BME280;42177;48.914;18.160;2023-07-29T04:08:00;981.3;;;18.5;100
56272;BME280;42177;48.914;18.160;2023-07-29T04:13:01;981.3;;;18.5;100
56272;BME280;42177;48.914;18.160;2023-07-29T04:18:01;981.4;;;18.3;100
56272;BME280;42177;48.914;18.160;2023-07-29T04:23:01;981.4;;;18.3;100
56272;BME280;42177;48.914;18.160;2023-07-29T04:28:01;981.4;;;18.5;100
56272;BME280;42177;48.914;18.160;2023-07-29T04:33:01;981.4;;;18.5;100
56272;BME280;42177;48.914;18.160;2023-07-29T04:38:01;981.3;;;18.7;100
56272;BME280;42177;48.914;18.160;2023-07-29T04:43:01;981.3;;;18.7;100
56272;BME280;42177;48.914;18.160;2023-07-29T04:48:01;981.4;;;18.8;100
56272;BME280;42177;48.914;18.160;2023-07-29T04:53:01;981.4;;;18.8;100
56272;BME280;42177;48.914;18.160;2023-07-29T04:58:01;981.4;;;19;100
56272;BME280;42177;48.914;18.160;2023-07-29T05:03:01;981.4;;;19;100
56272;BME280;42177;48.914;18.160;2023-07-29T05:08:01;981.6;;;19;100
56272;BME280;42177;48.914;18.160;2023-07-29T05:13:01;981.6;;;19;100
56272;BME280;42177;48.914;18.160;2023-07-29T05:18:01;981.6;;;18.8;100
56272;BME280;42177;48.914;18.160;2023-07-29T05:23:01;981.6;;;18.8;100
56272;BME280;42177;48.914;18.160;2023-07-29T05:28:01;981.7;;;18.9;100
56272;BME280;42177;48.914;18.160;2023-07-29T05:33:01;981.7;;;18.9;100
56272;BME280;42177;48.914;18.160;2023-07-29T05:38:01;981.7;;;19.1;100
56272;BME280;42177;48.914;18.160;2023-07-29T05:43:01;981.7;;;19.1;100
56272;BME280;42177;48.914;18.160;2023-07-29T05:48:01;981.8;;;19.4;100
56272;BME280;42177;48.914;18.160;2023-07-29T05:53:01;981.8;;;19.4;100
56272;BME280;42177;48.914;18.160;2023-07-29T05:58:01;981.9;;;19.6;100
56272;BME280;42177;48.914;18.160;2023-07-29T06:03:01;981.9;;;19.6;100
56272;BME280;42177;48.914;18.160;2023-07-29T06:08:01;981.9;;;19.6;100
56272;BME280;42177;48.914;18.160;2023-07-29T06:13:01;981.9;;;19.6;100
56272;BME280;42177;48.914;18.160;2023-07-29T06:18:01;982;;;20;100
56272;BME280;42177;48.914;18.160;2023-07-29T06:23:01;982;;;20;100
56272;BME280;42177;48.914;18.160;2023-07-29T06:28:01;982.1;;;20;100
56272;BME280;42177;48.914;18.160;2023-07-29T06:33:01;982.1;;;20;100
56272;BME280;42177;48.914;18.160;2023-07-29T06:38:01;982.1;;;20.3;100
56272;BME280;42177;48.914;18.160;2023-07-29T06:43:01;982.1;;;20.3;100
56272;BME280;42177;48.914;18.160;2023-07-29T06:48:01;982.1;;;20.5;100
56272;BME280;42177;48.914;18.160;2023-07-29T06:53:01;982.1;;;20.5;100
56272;BME280;42177;48.914;18.160;2023-07-29T06:58:01;982.1;;;20.4;100
56272;BME280;42177;48.914;18.160;2023-07-29T07:03:01;982.1;;;20.4;100
56272;BME280;42177;48.914;18.160;2023-07-29T07:08:01;982.1;;;20.3;100
56272;BME280;42177;48.914;18.160;2023-07-29T07:13:01;982.1;;;20.3;100
56272;BME280;42177;48.914;18.160;2023-07-29T07:18:01;982.1;;;20;100
56272;BME280;42177;48.914;18.160;2023-07-29T07:23:01;982.1;;;20;100
56272;BME280;42177;48.914;18.160;2023-07-29T07:28:01;982.1;;;20.3;100
56272;BME280;42177;48.914;18.160;2023-07-29T07:33:01;982.1;;;20.3;100
56272;BME280;42177;48.914;18.160;2023-07-29T07:38:01;982.1;;;20.5;100
56272;BME280;42177;48.914;18.160;2023-07-29T07:43:01;982.1;;;20.5;100
56272;BME280;42177;48.914;18.160;2023-07-29T07:48:01;982;;;20.9;100
56272;BME280;42177;48.914;18.160;2023-07-29T07:53:01;982;;;20.9;100
56272;BME280;42177;48.914;18.160;2023-07-29T07:58:01;982;;;21.1;100
56272;BME280;42177;48.914;18.160;2023-07-29T08:03:01;982;;;21.1;100
56272;BME280;42177;48.914;18.160;2023-07-29T08:08:01;982;;;21.3;100
56272;BME280;42177;48.914;18.160;2023-07-29T08:13:01;982;;;21.3;100
56272;BME280;42177;48.914;18.160;2023-07-29T08:18:01;981.8;;;21.8;100
56272;BME280;42177;48.914;18.160;2023-07-29T08:23:01;981.8;;;21.8;100
56272;BME280;42177;48.914;18.160;2023-07-29T08:28:01;981.8;;;22.1;100
56272;BME280;42177;48.914;18.160;2023-07-29T08:33:01;981.8;;;22.1;100
56272;BME280;42177;48.914;18.160;2023-07-29T08:38:01;981.7;;;22.3;100
56272;BME280;42177;48.914;18.160;2023-07-29T08:43:01;981.7;;;22.3;100
56272;BME280;42177;48.914;18.160;2023-07-29T08:48:02;981.6;;;22.7;96.8
56272;BME280;42177;48.914;18.160;2023-07-29T08:53:01;981.6;;;22.7;96.8
56272;BME280;42177;48.914;18.160;2023-07-29T08:58:01;981.4;;;22.6;97.4
56272;BME280;42177;48.914;18.160;2023-07-29T09:03:01;981.4;;;22.6;97.4
56272;BME280;42177;48.914;18.160;2023-07-29T09:08:01;981.4;;;23.5;92.1
56272;BME280;42177;48.914;18.160;2023-07-29T09:13:01;981.4;;;23.5;92.1
56272;BME280;42177;48.914;18.160;2023-07-29T09:18:08;981.3;;;23.8;88.4
56272;BME280;42177;48.914;18.160;2023-07-29T09:23:01;981.3;;;23.8;88.4
56272;BME280;42177;48.914;18.160;2023-07-29T09:28:01;981.2;;;24.4;83.5
56272;BME280;42177;48.914;18.160;2023-07-29T09:33:01;981.2;;;24.4;83.5
56272;BME280;42177;48.914;18.160;2023-07-29T09:38:01;981.1;;;25.2;77.8
56272;BME280;42177;48.914;18.160;2023-07-29T09:43:01;981.1;;;25.2;77.8
56272;BME280;42177;48.914;18.160;2023-07-29T09:48:01;981;;;25.5;71.8
56272;BME280;42177;48.914;18.160;2023-07-29T09:53:01;981;;;25.5;71.8
56272;BME280;42177;48.914;18.160;2023-07-29T09:58:01;981;;;24.3;80.2
56272;BME280;42177;48.914;18.160;2023-07-29T10:03:01;981;;;24.3;80.2
56272;BME280;42177;48.914;18.160;2023-07-29T10:08:01;981.1;;;24.4;76.9
56272;BME280;42177;48.914;18.160;2023-07-29T10:13:01;981.1;;;24.4;76.9
56272;BME280;42177;48.914;18.160;2023-07-29T10:18:01;981.3;;;24.4;77.8
56272;BME280;42177;48.914;18.160;2023-07-29T10:23:01;981.3;;;24.4;77.8
56272;BME280;42177;48.914;18.160;2023-07-29T10:28:03;981.1;;;24.2;80.4
56272;BME280;42177;48.914;18.160;2023-07-29T10:33:01;981.1;;;24.2;80.4
56272;BME280;42177;48.914;18.160;2023-07-29T10:38:01;981.2;;;24;81.4
56272;BME280;42177;48.914;18.160;2023-07-29T10:43:01;981.2;;;24;81.4
56272;BME280;42177;48.914;18.160;2023-07-29T10:48:02;981.1;;;23.8;82.7
56272;BME280;42177;48.914;18.160;2023-07-29T10:53:01;981.1;;;23.8;82.7
56272;BME280;42177;48.914;18.160;2023-07-29T10:58:05;981;;;23.4;83.9
56272;BME280;42177;48.914;18.160;2023-07-29T11:03:01;981;;;23.4;83.9
56272;BME280;42177;48.914;18.160;2023-07-29T11:08:01;981.2;;;22.7;100
56272;BME280;42177;48.914;18.160;2023-07-29T11:13:01;981.2;;;22.7;100
56272;BME280;42177;48.914;18.160;2023-07-29T11:18:01;981.2;;;23;100
56272;BME280;42177;48.914;18.160;2023-07-29T11:23:02;981.2;;;23;100
56272;BME280;42177;48.914;18.160;2023-07-29T11:28:01;981;;;23.7;100
56272;BME280;42177;48.914;18.160;2023-07-29T11:33:01;981;;;23.7;100
56272;BME280;42177;48.914;18.160;2023-07-29T11:38:01;981.1;;;23.9;91.6
56272;BME280;42177;48.914;18.160;2023-07-29T11:43:01;981.1;;;23.9;91.6
56272;BME280;42177;48.914;18.160;2023-07-29T11:48:01;981;;;24.8;90.2
56272;BME280;42177;48.914;18.160;2023-07-29T11:53:01;981;;;24.8;90.2
56272;BME280;42177;48.914;18.160;2023-07-29T11:58:01;980.9;;;25.2;80.2
56272;BME280;42177;48.914;18.160;2023-07-29T12:03:01;980.9;;;25.2;80.2
56272;BME280;42177;48.914;18.160;2023-07-29T12:08:01;980.9;;;25;83.2
56272;BME280;42177;48.914;18.160;2023-07-29T12:13:01;980.9;;;25;83.2
56272;BME280;42177;48.914;18.160;2023-07-29T12:18:01;980.7;;;24.9;85.5
56272;BME280;42177;48.914;18.160;2023-07-29T12:23:01;980.7;;;24.9;85.5
56272;BME280;42177;48.914;18.160;2023-07-29T12:28:02;980.7;;;26.4;77.4
56272;BME280;42177;48.914;18.160;2023-07-29T12:33:01;980.7;;;26.4;77.4
56272;BME280;42177;48.914;18.160;2023-07-29T12:38:01;980.4;;;26.5;70.3
56272;BME280;42177;48.914;18.160;2023-07-29T12:43:01;980.4;;;26.5;70.3
56272;BME280;42177;48.914;18.160;2023-07-29T12:48:01;980.4;;;27;70.3
56272;BME280;42177;48.914;18.160;2023-07-29T12:53:01;980.4;;;27;70.3
56272;BME280;42177;48.914;18.160;2023-07-29T12:58:01;980.3;;;26.3;71.6
56272;BME280;42177;48.914;18.160;2023-07-29T13:03:01;980.3;;;26.3;71.6
56272;BME280;42177;48.914;18.160;2023-07-29T13:08:01;980.4;;;26.3;72.8
56272;BME280;42177;48.914;18.160;2023-07-29T13:13:01;980.4;;;26.3;72.8
56272;BME280;42177;48.914;18.160;2023-07-29T13:18:01;980.4;;;25.7;73.1
56272;BME280;42177;48.914;18.160;2023-07-29T13:23:01;980.4;;;25.7;73.1
56272;BME280;42177;48.914;18.160;2023-07-29T13:28:01;980.3;;;25.4;73.9
56272;BME280;42177;48.914;18.160;2023-07-29T13:33:01;980.3;;;25.4;73.9
56272;BME280;42177;48.914;18.160;2023-07-29T13:38:01;980.2;;;27;72.6
56272;BME280;42177;48.914;18.160;2023-07-29T13:43:01;980.2;;;27;72.6
56272;BME280;42177;48.914;18.160;2023-07-29T13:48:01;980;;;27.5;64.5
56272;BME280;42177;48.914;18.160;2023-07-29T13:53:01;980;;;27.5;64.5
56272;BME280;42177;48.914;18.160;2023-07-29T13:58:01;980;;;26.9;67.3
56272;BME280;42177;48.914;18.160;2023-07-29T14:03:01;980;;;26.9;67.3
56272;BME280;42177;48.914;18.160;2023-07-29T14:08:01;979.9;;;27.9;66
56272;BME280;42177;48.914;18.160;2023-07-29T14:13:01;979.9;;;27.9;66
56272;BME280;42177;48.914;18.160;2023-07-29T14:18:01;979.8;;;29.1;56.1
56272;BME280;42177;48.914;18.160;2023-07-29T14:23:01;979.8;;;29.1;56.1
56272;BME280;42177;48.914;18.160;2023-07-29T14:28:01;979.6;;;28.4;60.2
56272;BME280;42177;48.914;18.160;2023-07-29T14:33:01;979.6;;;28.4;60.2
56272;BME280;42177;48.914;18.160;2023-07-29T14:38:01;979.5;;;28.2;64.5
56272;BME280;42177;48.914;18.160;2023-07-29T14:43:01;979.5;;;28.2;64.5
56272;BME280;42177;48.914;18.160;2023-07-29T14:48:01;979.5;;;30.2;55.6
56272;BME280;42177;48.914;18.160;2023-07-29T14:53:01;979.5;;;30.2;55.6
56272;BME280;42177;48.914;18.160;2023-07-29T14:58:01;979.3;;;28.3;56.2
56272;BME280;42177;48.914;18.160;2023-07-29T15:03:01;979.3;;;28.3;56.2
56272;BME280;42177;48.914;18.160;2023-07-29T15:08:01;979.2;;;27.5;65.1
56272;BME280;42177;48.914;18.160;2023-07-29T15:18:01;979.1;;;27;66.6
56272;BME280;42177;48.914;18.160;2023-07-29T15:23:01;979.1;;;27;66.6
56272;BME280;42177;48.914;18.160;2023-07-29T15:28:01;979.2;;;26.8;70.9
56272;BME280;42177;48.914;18.160;2023-07-29T15:33:01;979.2;;;26.8;70.9
56272;BME280;42177;48.914;18.160;2023-07-29T15:38:01;979.3;;;27.4;70
56272;BME280;42177;48.914;18.160;2023-07-29T15:43:01;979.3;;;27.4;70
56272;BME280;42177;48.914;18.160;2023-07-29T15:48:01;979.3;;;26.8;71
56272;BME280;42177;48.914;18.160;2023-07-29T15:53:01;979.3;;;26.8;71
56272;BME280;42177;48.914;18.160;2023-07-29T15:58:01;979.1;;;26.1;75.5
56272;BME280;42177;48.914;18.160;2023-07-29T16:03:01;979.1;;;26.1;75.5
56272;BME280;42177;48.914;18.160;2023-07-29T16:08:01;979.2;;;25.9;79.2
56272;BME280;42177;48.914;18.160;2023-07-29T16:13:01;979.2;;;25.9;79.2
56272;BME280;42177;48.914;18.160;2023-07-29T16:18:01;979.3;;;26.7;74.9
56272;BME280;42177;48.914;18.160;2023-07-29T16:23:01;979.3;;;26.7;74.9
56272;BME280;42177;48.914;18.160;2023-07-29T16:28:01;979.1;;;27.3;71.3
56272;BME280;42177;48.914;18.160;2023-07-29T16:33:01;979.1;;;27.3;71.3
56272;BME280;42177;48.914;18.160;2023-07-29T16:38:01;979.2;;;28;68.8
56272;BME280;42177;48.914;18.160;2023-07-29T16:43:01;979.2;;;28;68.8
56272;BME280;42177;48.914;18.160;2023-07-29T16:48:01;979.2;;;26.9;68.9
56272;BME280;42177;48.914;18.160;2023-07-29T16:53:01;979.2;;;26.9;68.9
56272;BME280;42177;48.914;18.160;2023-07-29T16:58:01;979.3;;;26;74.3
56272;BME280;42177;48.914;18.160;2023-07-29T17:03:01;979.3;;;26;74.3
56272;BME280;42177;48.914;18.160;2023-07-29T17:08:01;979.4;;;25.9;74.4
56272;BME280;42177;48.914;18.160;2023-07-29T17:13:01;979.4;;;25.9;74.4
56272;BME280;42177;48.914;18.160;2023-07-29T17:18:01;979.5;;;25.2;76.7
56272;BME280;42177;48.914;18.160;2023-07-29T17:23:01;979.5;;;25.2;76.7
56272;BME280;42177;48.914;18.160;2023-07-29T17:28:01;979.5;;;24.7;79.4
56272;BME280;42177;48.914;18.160;2023-07-29T17:33:01;979.5;;;24.7;79.4
56272;BME280;42177;48.914;18.160;2023-07-29T17:38:01;979.7;;;24.5;80.5
56272;BME280;42177;48.914;18.160;2023-07-29T17:43:01;979.7;;;24.5;80.5
56272;BME280;42177;48.914;18.160;2023-07-29T17:48:01;979.7;;;24.2;81.9
56272;BME280;42177;48.914;18.160;2023-07-29T17:53:01;979.7;;;24.2;81.9
56272;BME280;42177;48.914;18.160;2023-07-29T17:58:01;979.6;;;24.2;82.4
56272;BME280;42177;48.914;18.160;2023-07-29T18:03:01;979.6;;;24.2;82.4
56272;BME280;42177;48.914;18.160;2023-07-29T18:08:01;979.7;;;24;83.7
56272;BME280;42177;48.914;18.160;2023-07-29T18:13:01;979.7;;;24;83.7
56272;BME280;42177;48.914;18.160;2023-07-29T18:18:01;979.9;;;23.7;86.4
56272;BME280;42177;48.914;18.160;2023-07-29T18:23:01;979.9;;;23.7;86.4
56272;BME280;42177;48.914;18.160;2023-07-29T18:28:01;980.1;;;23.5;87.5
56272;BME280;42177;48.914;18.160;2023-07-29T18:33:01;980.1;;;23.5;87.5
56272;BME280;42177;48.914;18.160;2023-07-29T18:38:01;980.2;;;23.4;89.1
56272;BME280;42177;48.914;18.160;2023-07-29T18:43:01;980.2;;;23.4;89.1
56272;BME280;42177;48.914;18.160;2023-07-29T18:48:01;980.1;;;23;92.3
56272;BME280;42177;48.914;18.160;2023-07-29T18:53:01;980.1;;;23;92.3
56272;BME280;42177;48.914;18.160;2023-07-29T18:58:01;980.2;;;22.8;95.3
56272;BME280;42177;48.914;18.160;2023-07-29T19:03:01;980.2;;;22.8;95.3
56272;BME280;42177;48.914;18.160;2023-07-29T19:08:01;980.5;;;22.6;98.3
56272;BME280;42177;48.914;18.160;2023-07-29T19:13:01;980.5;;;22.6;98.3
56272;BME280;42177;48.914;18.160;2023-07-29T19:18:01;980.4;;;22.4;100
56272;BME280;42177;48.914;18.160;2023-07-29T19:23:01;980.4;;;22.4;100
56272;BME280;42177;48.914;18.160;2023-07-29T19:28:01;980.5;;;22.2;100
56272;BME280;42177;48.914;18.160;2023-07-29T19:33:01;980.5;;;22.2;100
56272;BME280;42177;48.914;18.160;2023-07-29T19:38:01;980.6;;;21.9;100
56272;BME280;42177;48.914;18.160;2023-07-29T19:43:01;980.6;;;21.9;100
56272;BME280;42177;48.914;18.160;2023-07-29T19:48:01;980.5;;;21.7;100
56272;BME280;42177;48.914;18.160;2023-07-29T19:53:01;980.5;;;21.7;100
56272;BME280;42177;48.914;18.160;2023-07-29T19:58:01;980.4;;;21.4;100
56272;BME280;42177;48.914;18.160;2023-07-29T20:03:01;980.4;;;21.4;100
56272;BME280;42177;48.914;18.160;2023-07-29T20:08:01;980.2;;;21.3;100
56272;BME280;42177;48.914;18.160;2023-07-29T20:13:01;980.2;;;21.3;100
56272;BME280;42177;48.914;18.160;2023-07-29T20:18:01;980.2;;;21;100
56272;BME280;42177;48.914;18.160;2023-07-29T20:23:01;980.2;;;21;100
56272;BME280;42177;48.914;18.160;2023-07-29T20:28:01;980.3;;;21;100
56272;BME280;42177;48.914;18.160;2023-07-29T20:33:01;980.3;;;21;100
56272;BME280;42177;48.914;18.160;2023-07-29T20:38:01;980.3;;;20.9;100
56272;BME280;42177;48.914;18.160;2023-07-29T20:43:01;980.3;;;20.9;100
56272;BME280;42177;48.914;18.160;2023-07-29T20:48:01;980.3;;;21.1;100
56272;BME280;42177;48.914;18.160;2023-07-29T20:53:01;980.3;;;21.1;100
56272;BME280;42177;48.914;18.160;2023-07-29T20:58:01;980.4;;;20.9;100
56272;BME280;42177;48.914;18.160;2023-07-29T21:03:01;980.4;;;20.9;100
56272;BME280;42177;48.914;18.160;2023-07-29T21:08:01;980.3;;;20.9;100
56272;BME280;42177;48.914;18.160;2023-07-29T21:13:01;980.3;;;20.9;100
56272;BME280;42177;48.914;18.160;2023-07-29T21:18:01;980.4;;;20.6;100
56272;BME280;42177;48.914;18.160;2023-07-29T21:23:01;980.4;;;20.6;100
56272;BME280;42177;48.914;18.160;2023-07-29T21:28:01;980.4;;;20.5;100
56272;BME280;42177;48.914;18.160;2023-07-29T21:33:01;980.4;;;20.5;100
56272;BME280;42177;48.914;18.160;2023-07-29T21:38:01;980.5;;;20.5;100
56272;BME280;42177;48.914;18.160;2023-07-29T21:43:01;980.5;;;20.5;100
56272;BME280;42177;48.914;18.160;2023-07-29T21:48:01;980.5;;;20.3;100
56272;BME280;42177;48.914;18.160;2023-07-29T21:53:01;980.5;;;20.3;100
56272;BME280;42177;48.914;18.160;2023-07-29T21:58:01;980.3;;;20.3;100
56272;BME280;42177;48.914;18.160;2023-07-29T22:03:01;980.3;;;20.3;100
56272;BME280;42177;48.914;18.160;2023-07-29T22:08:01;980.6;;;20.2;100
56272;BME280;42177;48.914;18.160;2023-07-29T22:13:01;980.6;;;20.2;100
56272;BME280;42177;48.914;18.160;2023-07-29T22:18:01;980.8;;;20.3;100
56272;BME280;42177;48.914;18.160;2023-07-29T22:23:01;980.8;;;20.3;100
56272;BME280;42177;48.914;18.160;2023-07-29T22:28:01;980.9;;;20.4;100
56272;BME280;42177;48.914;18.160;2023-07-29T22:33:01;980.9;;;20.4;100
56272;BME280;42177;48.914;18.160;2023-07-29T22:38:01;981;;;20.5;100
56272;BME280;42177;48.914;18.160;2023-07-29T22:43:01;981;;;20.5;100
56272;BME280;42177;48.914;18.160;2023-07-29T22:48:01;981.1;;;20.6;100
56272;BME280;42177;48.914;18.160;2023-07-29T22:53:01;981.1;;;20.6;100
56272;BME280;42177;48.914;18.160;2023-07-29T22:58:01;981.1;;;20.8;100
56272;BME280;42177;48.914;18.160;2023-07-29T23:03:01;981.1;;;20.8;100
56272;BME280;42177;48.914;18.160;2023-07-29T23:08:01;981.1;;;20.9;100
56272;BME280;42177;48.914;18.160;2023-07-29T23:13:01;981.1;;;20.9;100
56272;BME280;42177;48.914;18.160;2023-07-29T23:18:01;981;;;21;100
56272;BME280;42177;48.914;18.160;2023-07-29T23:23:01;981;;;21;100
56272;BME280;42177;48.914;18.160;2023-07-29T23:28:01;981.1;;;21;100
56272;BME280;42177;48.914;18.160;2023-07-29T23:33:01;981.1;;;21;100
56272;BME280;42177;48.914;18.160;2023-07-29T23:38:01;981;;;20.9;100
56272;BME280;42177;48.914;18.160;2023-07-29T23:43:01;981;;;20.9;100
56272;BME280;42177;48.914;18.160;2023-07-29T23:48:01;980.8;;;20.9;100
56272;BME280;42177;48.914;18.160;2023-07-29T23:53:01;980.8;;;20.9;100
56272;BME280;42177;48.914;18.160;2023-07-29T23:58:01;980.8;;;20.6;100
